NCAR-RAP Real-Time Weather Data

Output produced by METARs form (20 February 2019  17:05 UTC)
found at http://weather.rap.ucar.edu/surface/
 
RJEB 200700Z 34005KT 9999 FEW008 BKN010 M04/M07 Q1016
RJEB 200600Z 35007KT 9999 -SHSN FEW007 BKN009 M04/M06 Q1016
RJEB 200516Z 33008KT 9999 -SHSN FEW006 BKN008 M04/M06 Q1016 RMK 1ST006 6ST008 A3001
RJEB 200500Z 31009KT 9999 -SHSN FEW005 BKN007 M04/M05 Q1016
RJEB 200400Z 32010KT 7000 -SHSN FEW003 SCT004 BKN006 M04/M05 Q1015
RJEB 200300Z 32010KT 6000 -SHSN FEW002 BKN003 M03/M04 Q1016
RJEB 200200Z 32011KT 6000 -SHSN FEW002 BKN003 M03/M04 Q1016
RJEB 200100Z 32014KT 6000 -SHSN FEW002 BKN003 M03/M04 Q1015
RJEB 200000Z 33016KT 6000 -SHSN FEW002 BKN003 M03/M04 Q1015
RJEB 190700Z 11004KT 9999 FEW050 SCT150 BKN/// 01/M09 Q1016
RJEB 190600Z 09006KT 020V130 9999 FEW050 SCT140 BKN/// 01/M08 Q1017
RJEB 190500Z 13004KT 090V190 9999 FEW050 BKN160 BKN/// 03/M08 Q1017
RJEB 190400Z 11005KT 9999 FEW040 SCT150 BKN160 02/M09 Q1018
RJEB 190300Z 13005KT 9999 FEW040 SCT150 BKN160 02/M09 Q1019
RJEB 190200Z 17003KT 120V210 9999 FEW040 BKN/// 01/M10 Q1019
RJEB 190100Z 12003KT 080V170 9999 FEW050 BKN/// M02/M09 Q1020
RJEB 190000Z 17003KT 120V210 9999 FEW050 BKN/// M01/M09 Q1020
RJEB 180700Z VRB02KT 9999 FEW030 M03/M07 Q1018
RJEB 180600Z 32004KT 9999 FEW030 BKN050 M03/M07 Q1017